Terminal Aerodrome Forecast
Issued by NWS Pocatello, ID

Home | Current Version | Previous Version | Text Only | Print | Product List | Glossary On
Versions: 1 2 3 4 5 6 7 8 9 10 11 12
000
FTUS45 KPIH 282321
TAFBYI
TAF
KBYI 282321Z 2900/2924 08008KT P6SM VCTS SCT120CB BKN150
     FM290300 15012KT P6SM VCSH SCT090 BKN120
     FM291900 28012KT P6SM VCSH BKN120=

USA.gov is the U.S. government's official web portal to all federal, state and local government web resources and services.